Columbia Metropolitan Airport
KCAE : now visible

Airfield :











YOU CAN JOIN US ON...

 
LOGIN :

Register | Disclaimer

   EN    FR    IT 

 









Legend :    VFR   Marginal VFR   IFR   Intensive IFR   Very Intensive IFR
Visi :
Ceiling :
>= 8 km
>= 3000ft
5 to 8 km
1000 to 3000 ft
1500m to 5 km
500 to 1000 ft
800 to 1500m
200 to 500 ft
< 800m
< 200 ft
Symbols :   Thunderstorms  Fog  Heavy snow  Heavy precipitations  Wind > 20 kt






- Airport Elevation : 236 ft
- IATA code : CAE


KCAE - Columbia Metropolitan

CURRENT METAR :
  • 260556Z 25008KT 10SM CLR 19/17 A2972 RMK AO2 SLP061 60010 T01890167 10228 20189 55006

EXPIRED METARs :
  • 260456Z 24006KT 10SM CLR 19/17 A2972 RMK AO2 SLP060 T01940172 402670172
  • 260356Z 24005KT 10SM SCT070 OVC150 19/18 A2973 RMK AO2 SLP064 T01940178

TAF KCAE
Valid from the 26 at 06:00 until the 27 at 06:00 UTC


260541Z 2606/2706 28010G15KT P6SM SKC
FM261400 30012G18KT P6SM SKC
FM270000 32006KT P6SM SKC
KZJX FIR / North America



MET'MAP, your aeronautical weather chart ! - Copyright ORBIFLY December 2007 - Disclaimer

ORBIFLY MET'MAP TEAM :

Programming & Development : Alexandra Zaïnal
Concept & original design : Baudouin d'Aumeries
Assistance for programming : Marc-Olivier Méhu
Technical & hardware support : Manuel Goepfert

Contact : metmap@orbifly.com




SOURCES & CREDITS :

   NOAA       Earth
Advisory